»·PEaware :: N536VR KSNA-KUDD

N536VR :: KSNA-KUDD

FLIGHT INFORMATION

Flight Status: Arrived
Operator: Privately registered:
United States
More flights under this callsign
Pilot: Sanjiv S. (4490)
Aircraft: CESSNA 172 SKYHAWK
(C172)
More flights by this aircraft type
Origin: KSNA John Wayne-Orange Co
United States
Destination: KUDD Bermuda Dunes
United States
More flights between these airports :: More routes between these airports
Route: +KBNG PSP
File this flight plan on PilotEdge
Remarks:
Altitude:
(Current/Filed)
5,500ft
Speed:
(Current/Filed)
100kts
Departed: 21-Jul-18 09:56 AM
Arrived: 21-Jul-18 10:50 AM
Distance/Time
Traveled:
80nm/0:54
Distance/Time
To Go:
Arrived

Flight Plot

Page will automatically refresh every two minutes.

Flight plan parsing failed; only flown route is shown


Map Options




Map Legend


Flown Route
Filed Route
Departure Airport
Arrival Airport
Navaid (VOR, NDB)
Fix

Horizontal Profiles

Position Reports

Time Latitude Longitude Heading Altitude Ground
Speed
21-Jul-18 09:24 33.670993 -117.867951 34 60ft 0kts
21-Jul-18 09:25 33.670993 -117.867951 34 60ft 0kts
21-Jul-18 09:26 33.670993 -117.867951 34 60ft 0kts
21-Jul-18 09:27 33.670993 -117.867951 34 60ft 0kts
21-Jul-18 09:28 33.670993 -117.867951 34 60ft 0kts
21-Jul-18 09:29 33.670993 -117.867951 34 60ft 0kts
21-Jul-18 09:30 33.670993 -117.867951 34 60ft 0kts
21-Jul-18 09:31 33.670993 -117.867951 34 60ft 0kts
21-Jul-18 09:32 33.670993 -117.867951 34 60ft 0kts
21-Jul-18 09:33 33.670993 -117.867951 33 60ft 0kts
21-Jul-18 09:34 33.670993 -117.867951 33 60ft 0kts
21-Jul-18 09:35 33.670993 -117.867951 33 60ft 0kts
21-Jul-18 09:36 33.670993 -117.867951 33 60ft 0kts
21-Jul-18 09:37 33.670993 -117.867951 33 60ft 0kts
21-Jul-18 09:38 33.670993 -117.867951 33 60ft 0kts
21-Jul-18 09:39 33.670993 -117.867951 33 60ft 0kts
21-Jul-18 09:40 33.670993 -117.867951 33 60ft 0kts
21-Jul-18 09:41 33.670993 -117.867951 33 60ft 0kts
21-Jul-18 09:42 33.670993 -117.867951 33 60ft 0kts
21-Jul-18 09:43 33.670993 -117.867951 33 60ft 0kts
21-Jul-18 09:44 33.670993 -117.867951 33 60ft 0kts
21-Jul-18 09:45 33.670993 -117.867951 33 60ft 0kts
21-Jul-18 09:46 33.670993 -117.867951 33 60ft 0kts
21-Jul-18 09:47 33.670993 -117.867951 33 60ft 0kts
21-Jul-18 09:48 33.671247 -117.868066 321 60ft 1kts
21-Jul-18 09:49 33.671413 -117.868289 305 60ft 6kts
21-Jul-18 09:50 33.673750 -117.867198 343 60ft 8kts
21-Jul-18 09:51 33.677793 -117.864724 27 60ft 19kts
21-Jul-18 09:52 33.679996 -117.863443 247 60ft 0kts
21-Jul-18 09:53 33.679971 -117.863671 297 60ft 5kts
21-Jul-18 09:54 33.679988 -117.863707 298 60ft 0kts
21-Jul-18 09:55 33.679988 -117.863707 298 60ft 0kts
21-Jul-18 09:56 33.680000 -117.863735 295 60ft 0kts
21-Jul-18 09:57 33.677304 -117.865953 209 60ft 66kts
21-Jul-18 09:58 33.670218 -117.882889 356 677ft 84kts
21-Jul-18 09:59 33.691989 -117.888119 342 1395ft 84kts
21-Jul-18 10:00 33.713970 -117.897668 337 2069ft 86kts
21-Jul-18 10:01 33.730608 -117.884938 70 2723ft 86kts
21-Jul-18 10:02 33.737610 -117.857761 70 3378ft 85kts
21-Jul-18 10:03 33.743289 -117.835819 70 3880ft 83kts
21-Jul-18 10:04 33.749898 -117.810210 70 4446ft 82kts
21-Jul-18 10:05 33.756535 -117.784307 70 4998ft 83kts
21-Jul-18 10:06 33.765158 -117.749942 70 5415ft 106kts
21-Jul-18 10:07 33.774765 -117.712593 71 5482ft 125kts
21-Jul-18 10:08 33.784812 -117.674064 70 5481ft 119kts
21-Jul-18 10:09 33.792800 -117.643763 70 5481ft 117kts
21-Jul-18 10:10 33.802716 -117.606876 70 5482ft 117kts
21-Jul-18 10:11 33.812701 -117.570141 70 5484ft 117kts
21-Jul-18 10:12 33.821184 -117.532742 77 5486ft 117kts
21-Jul-18 10:13 33.825567 -117.505580 77 5487ft 116kts
21-Jul-18 10:14 33.831439 -117.468378 77 5488ft 111kts
21-Jul-18 10:15 33.837211 -117.433429 76 5490ft 105kts
21-Jul-18 10:16 33.843073 -117.399578 76 5492ft 104kts
21-Jul-18 10:17 33.849176 -117.365731 76 5493ft 104kts
21-Jul-18 10:18 33.855342 -117.332696 77 5483ft 105kts
21-Jul-18 10:19 33.861767 -117.298488 76 5477ft 105kts
21-Jul-18 10:20 33.868305 -117.264392 76 5478ft 104kts
21-Jul-18 10:21 33.875167 -117.228767 76 5473ft 119kts
21-Jul-18 10:22 33.882473 -117.190165 76 5472ft 119kts
21-Jul-18 10:23 33.889655 -117.151633 76 5472ft 119kts
21-Jul-18 10:24 33.896735 -117.113067 76 5472ft 119kts
21-Jul-18 10:25 33.903019 -117.074213 78 5471ft 119kts
21-Jul-18 10:26 33.908726 -117.034935 78 5471ft 119kts
21-Jul-18 10:27 33.913165 -116.995027 81 5472ft 120kts
21-Jul-18 10:28 33.917601 -116.955226 80 5472ft 121kts
21-Jul-18 10:29 33.921387 -116.915347 84 5472ft 121kts
21-Jul-18 10:30 33.923584 -116.874809 85 5472ft 122kts
21-Jul-18 10:31 33.922914 -116.836710 92 5466ft 109kts
21-Jul-18 10:32 33.918123 -116.802176 96 5499ft 102kts
21-Jul-18 10:33 33.913625 -116.768658 95 5495ft 101kts
21-Jul-18 10:34 33.909535 -116.735671 96 5491ft 100kts
21-Jul-18 10:35 33.905470 -116.702726 97 5488ft 99kts
21-Jul-18 10:36 33.901447 -116.670135 99 5484ft 98kts
21-Jul-18 10:37 33.897414 -116.637604 100 5481ft 98kts
21-Jul-18 10:38 33.893373 -116.605110 100 5481ft 98kts
21-Jul-18 10:39 33.888151 -116.572870 102 5481ft 98kts
21-Jul-18 10:40 33.883829 -116.540465 100 5481ft 98kts
21-Jul-18 10:41 33.879598 -116.506948 100 5249ft 108kts
21-Jul-18 10:42 33.874950 -116.470235 100 4745ft 112kts
21-Jul-18 10:43 33.858254 -116.439549 132 4235ft 113kts
21-Jul-18 10:44 33.836068 -116.412981 132 3731ft 113kts
21-Jul-18 10:45 33.813265 -116.385752 132 2779ft 115kts
21-Jul-18 10:46 33.791406 -116.360076 131 1937ft 112kts
21-Jul-18 10:47 33.773190 -116.335056 119 1192ft 75kts
21-Jul-18 10:48 33.766187 -116.315271 113 543ft 60kts
21-Jul-18 10:49 33.758451 -116.299352 118 305ft 53kts
21-Jul-18 10:50 33.752282 -116.284348 114 111ft 43kts
21-Jul-18 10:51 33.749343 -116.277228 147 77ft 6kts
21-Jul-18 10:52 33.748400 -116.276230 117 77ft 0kts
21-Jul-18 10:53 33.748398 -116.276228 118 77ft 0kts
21-Jul-18 10:54 33.752092 -116.283889 116 106ft 43kts
21-Jul-18 10:55 33.748398 -116.276228 118 77ft 0kts

Navigation Log

Ident Type
Flight plan parsing failed, navigation log unavailable